Terminal Aerodrome Forecast
Issued by NWS Bismarck, ND

Home | Current Version | Previous Version | Text Only | Print | Product List | Glossary On
Versions: 1 2 3 4 5 6 7 8 9 10 11 12 13 14 15 16 17 18 19 20 21 22 23
761
FTUS43 KBIS 241154 AAD
TAFISN
TAF AMD
KISN 241154Z 2412/2512 30010KT P6SM BKN035
     FM241300 30027G41KT P6SM SCT100
     FM241500 29017G26KT P6SM FEW250
     FM242300 28008KT P6SM FEW250=

USA.gov is the U.S. government's official web portal to all federal, state and local government web resources and services.